sensor_id;sensor_type;location;lat;lon;timestamp;P1;durP1;ratioP1;P2;durP2;ratioP2
15102;SDS011;7652;53.584;9.998;2022-10-24T00:00:31;2.43;;;1.63;;
15102;SDS011;7652;53.584;9.998;2022-10-24T00:03:34;2.00;;;1.30;;
15102;SDS011;7652;53.584;9.998;2022-10-24T00:06:39;6.83;;;2.10;;
15102;SDS011;7652;53.584;9.998;2022-10-24T00:09:43;3.63;;;2.00;;
15102;SDS011;7652;53.584;9.998;2022-10-24T00:12:46;3.30;;;1.70;;
15102;SDS011;7652;53.584;9.998;2022-10-24T00:15:49;4.20;;;2.10;;
15102;SDS011;7652;53.584;9.998;2022-10-24T00:18:53;3.00;;;1.57;;
15102;SDS011;7652;53.584;9.998;2022-10-24T00:21:56;3.40;;;1.67;;
15102;SDS011;7652;53.584;9.998;2022-10-24T00:25:00;1.67;;;1.50;;
15102;SDS011;7652;53.584;9.998;2022-10-24T00:28:03;2.10;;;1.33;;
15102;SDS011;7652;53.584;9.998;2022-10-24T00:31:07;1.70;;;1.47;;
15102;SDS011;7652;53.584;9.998;2022-10-24T00:34:13;3.30;;;2.13;;
15102;SDS011;7652;53.584;9.998;2022-10-24T00:37:17;3.13;;;1.97;;
15102;SDS011;7652;53.584;9.998;2022-10-24T00:40:22;3.00;;;1.90;;
15102;SDS011;7652;53.584;9.998;2022-10-24T00:43:25;1.50;;;1.40;;
15102;SDS011;7652;53.584;9.998;2022-10-24T00:46:29;3.30;;;1.63;;
15102;SDS011;7652;53.584;9.998;2022-10-24T00:49:34;2.83;;;1.80;;
15102;SDS011;7652;53.584;9.998;2022-10-24T00:52:45;1.90;;;1.60;;
15102;SDS011;7652;53.584;9.998;2022-10-24T00:55:51;1.97;;;1.70;;
15102;SDS011;7652;53.584;9.998;2022-10-24T00:58:57;1.80;;;1.70;;
15102;SDS011;7652;53.584;9.998;2022-10-24T01:02:02;1.50;;;1.40;;
15102;SDS011;7652;53.584;9.998;2022-10-24T01:05:06;5.30;;;2.10;;
15102;SDS011;7652;53.584;9.998;2022-10-24T01:08:13;2.63;;;1.33;;
15102;SDS011;7652;53.584;9.998;2022-10-24T01:11:30;1.80;;;1.50;;
15102;SDS011;7652;53.584;9.998;2022-10-24T01:14:45;2.93;;;1.80;;
15102;SDS011;7652;53.584;9.998;2022-10-24T01:17:55;1.47;;;1.37;;
15102;SDS011;7652;53.584;9.998;2022-10-24T01:21:04;2.40;;;1.93;;
15102;SDS011;7652;53.584;9.998;2022-10-24T01:24:34;2.17;;;1.70;;
15102;SDS011;7652;53.584;9.998;2022-10-24T01:27:58;2.17;;;1.83;;
15102;SDS011;7652;53.584;9.998;2022-10-24T01:31:08;2.20;;;1.50;;
15102;SDS011;7652;53.584;9.998;2022-10-24T01:34:14;1.80;;;1.70;;
15102;SDS011;7652;53.584;9.998;2022-10-24T01:37:22;1.80;;;1.60;;
15102;SDS011;7652;53.584;9.998;2022-10-24T01:40:32;1.63;;;1.30;;
15102;SDS011;7652;53.584;9.998;2022-10-24T01:43:38;1.33;;;1.20;;
15102;SDS011;7652;53.584;9.998;2022-10-24T01:46:46;2.47;;;1.60;;
15102;SDS011;7652;53.584;9.998;2022-10-24T01:49:54;1.60;;;1.50;;
15102;SDS011;7652;53.584;9.998;2022-10-24T01:53:00;2.10;;;1.60;;
15102;SDS011;7652;53.584;9.998;2022-10-24T01:56:04;1.50;;;1.40;;
15102;SDS011;7652;53.584;9.998;2022-10-24T01:59:37;1.40;;;1.30;;
15102;SDS011;7652;53.584;9.998;2022-10-24T02:02:47;2.07;;;1.60;;
15102;SDS011;7652;53.584;9.998;2022-10-24T02:05:54;2.10;;;1.63;;
15102;SDS011;7652;53.584;9.998;2022-10-24T02:09:02;1.93;;;1.40;;
15102;SDS011;7652;53.584;9.998;2022-10-24T02:12:08;2.30;;;1.60;;
15102;SDS011;7652;53.584;9.998;2022-10-24T02:15:16;1.60;;;1.50;;
15102;SDS011;7652;53.584;9.998;2022-10-24T02:18:23;1.60;;;1.50;;
15102;SDS011;7652;53.584;9.998;2022-10-24T02:21:27;2.57;;;1.50;;
15102;SDS011;7652;53.584;9.998;2022-10-24T02:24:39;4.20;;;1.60;;
15102;SDS011;7652;53.584;9.998;2022-10-24T02:27:47;1.60;;;1.50;;
15102;SDS011;7652;53.584;9.998;2022-10-24T02:30:56;1.93;;;1.50;;
15102;SDS011;7652;53.584;9.998;2022-10-24T02:34:04;1.60;;;1.33;;
15102;SDS011;7652;53.584;9.998;2022-10-24T02:37:13;2.20;;;1.70;;
15102;SDS011;7652;53.584;9.998;2022-10-24T02:40:18;1.90;;;1.70;;
15102;SDS011;7652;53.584;9.998;2022-10-24T02:43:23;1.30;;;1.20;;
15102;SDS011;7652;53.584;9.998;2022-10-24T02:46:30;1.57;;;1.47;;
15102;SDS011;7652;53.584;9.998;2022-10-24T02:49:34;3.10;;;1.40;;
15102;SDS011;7652;53.584;9.998;2022-10-24T02:52:38;1.87;;;1.60;;
15102;SDS011;7652;53.584;9.998;2022-10-24T02:55:42;1.70;;;1.50;;
15102;SDS011;7652;53.584;9.998;2022-10-24T02:58:45;1.67;;;1.50;;
15102;SDS011;7652;53.584;9.998;2022-10-24T03:01:50;1.67;;;1.50;;
15102;SDS011;7652;53.584;9.998;2022-10-24T03:04:53;1.20;;;1.10;;
15102;SDS011;7652;53.584;9.998;2022-10-24T03:07:56;1.77;;;1.60;;
15102;SDS011;7652;53.584;9.998;2022-10-24T03:10:59;1.67;;;1.57;;
15102;SDS011;7652;53.584;9.998;2022-10-24T03:14:02;3.23;;;1.53;;
15102;SDS011;7652;53.584;9.998;2022-10-24T03:17:06;1.70;;;1.60;;
15102;SDS011;7652;53.584;9.998;2022-10-24T03:20:09;1.40;;;1.30;;
15102;SDS011;7652;53.584;9.998;2022-10-24T03:23:13;1.70;;;1.60;;
15102;SDS011;7652;53.584;9.998;2022-10-24T03:26:16;1.80;;;1.53;;
15102;SDS011;7652;53.584;9.998;2022-10-24T03:29:19;2.07;;;1.70;;
15102;SDS011;7652;53.584;9.998;2022-10-24T03:32:24;1.90;;;1.70;;
15102;SDS011;7652;53.584;9.998;2022-10-24T03:35:32;2.47;;;1.73;;
15102;SDS011;7652;53.584;9.998;2022-10-24T03:38:37;2.20;;;1.60;;
15102;SDS011;7652;53.584;9.998;2022-10-24T03:41:40;3.43;;;1.90;;
15102;SDS011;7652;53.584;9.998;2022-10-24T03:44:43;3.20;;;1.80;;
15102;SDS011;7652;53.584;9.998;2022-10-24T03:47:47;2.73;;;1.80;;
15102;SDS011;7652;53.584;9.998;2022-10-24T03:50:50;3.30;;;1.67;;
15102;SDS011;7652;53.584;9.998;2022-10-24T03:53:53;3.03;;;1.70;;
15102;SDS011;7652;53.584;9.998;2022-10-24T03:56:56;3.53;;;1.90;;
15102;SDS011;7652;53.584;9.998;2022-10-24T03:59:59;1.83;;;1.60;;
15102;SDS011;7652;53.584;9.998;2022-10-24T04:03:03;2.27;;;2.10;;
15102;SDS011;7652;53.584;9.998;2022-10-24T04:06:07;2.43;;;1.67;;
15102;SDS011;7652;53.584;9.998;2022-10-24T04:09:10;4.13;;;1.60;;
15102;SDS011;7652;53.584;9.998;2022-10-24T04:12:13;2.83;;;1.87;;
15102;SDS011;7652;53.584;9.998;2022-10-24T04:15:16;2.27;;;1.90;;
15102;SDS011;7652;53.584;9.998;2022-10-24T04:18:21;3.33;;;1.67;;
15102;SDS011;7652;53.584;9.998;2022-10-24T04:21:24;2.40;;;2.00;;
15102;SDS011;7652;53.584;9.998;2022-10-24T04:24:27;3.57;;;1.90;;
15102;SDS011;7652;53.584;9.998;2022-10-24T04:27:30;2.27;;;1.80;;
15102;SDS011;7652;53.584;9.998;2022-10-24T04:30:33;3.43;;;2.00;;
15102;SDS011;7652;53.584;9.998;2022-10-24T04:33:37;2.07;;;1.80;;
15102;SDS011;7652;53.584;9.998;2022-10-24T04:36:40;1.97;;;1.70;;
15102;SDS011;7652;53.584;9.998;2022-10-24T04:39:43;2.03;;;1.77;;
15102;SDS011;7652;53.584;9.998;2022-10-24T04:42:46;3.97;;;1.87;;
15102;SDS011;7652;53.584;9.998;2022-10-24T04:45:49;2.13;;;1.70;;
15102;SDS011;7652;53.584;9.998;2022-10-24T04:48:54;2.37;;;1.63;;
15102;SDS011;7652;53.584;9.998;2022-10-24T04:51:57;4.70;;;1.77;;
15102;SDS011;7652;53.584;9.998;2022-10-24T04:55:00;4.60;;;1.73;;
15102;SDS011;7652;53.584;9.998;2022-10-24T04:58:03;1.63;;;1.53;;
15102;SDS011;7652;53.584;9.998;2022-10-24T05:01:06;2.63;;;1.90;;
15102;SDS011;7652;53.584;9.998;2022-10-24T05:04:10;3.33;;;2.93;;
15102;SDS011;7652;53.584;9.998;2022-10-24T05:07:14;3.10;;;2.10;;
15102;SDS011;7652;53.584;9.998;2022-10-24T05:10:17;2.10;;;1.50;;
15102;SDS011;7652;53.584;9.998;2022-10-24T05:13:20;2.43;;;1.57;;
15102;SDS011;7652;53.584;9.998;2022-10-24T05:16:23;2.60;;;1.70;;
15102;SDS011;7652;53.584;9.998;2022-10-24T05:19:27;6.10;;;2.10;;
15102;SDS011;7652;53.584;9.998;2022-10-24T05:22:30;4.63;;;2.10;;
15102;SDS011;7652;53.584;9.998;2022-10-24T05:25:33;3.97;;;1.83;;
15102;SDS011;7652;53.584;9.998;2022-10-24T05:28:36;4.20;;;2.10;;
15102;SDS011;7652;53.584;9.998;2022-10-24T05:31:39;4.90;;;1.83;;
15102;SDS011;7652;53.584;9.998;2022-10-24T05:34:43;1.53;;;1.37;;
15102;SDS011;7652;53.584;9.998;2022-10-24T05:37:46;4.60;;;2.23;;
15102;SDS011;7652;53.584;9.998;2022-10-24T05:40:49;2.40;;;1.80;;
15102;SDS011;7652;53.584;9.998;2022-10-24T05:43:52;3.27;;;1.60;;
15102;SDS011;7652;53.584;9.998;2022-10-24T05:46:55;3.07;;;1.70;;
15102;SDS011;7652;53.584;9.998;2022-10-24T05:50:00;4.03;;;1.90;;
15102;SDS011;7652;53.584;9.998;2022-10-24T05:53:03;2.67;;;2.00;;
15102;SDS011;7652;53.584;9.998;2022-10-24T05:56:06;2.70;;;1.80;;
15102;SDS011;7652;53.584;9.998;2022-10-24T05:59:09;5.07;;;1.73;;
15102;SDS011;7652;53.584;9.998;2022-10-24T06:02:15;1.93;;;1.73;;
15102;SDS011;7652;53.584;9.998;2022-10-24T06:05:21;4.13;;;1.83;;
15102;SDS011;7652;53.584;9.998;2022-10-24T06:08:24;12.10;;;2.00;;
15102;SDS011;7652;53.584;9.998;2022-10-24T06:11:27;3.67;;;1.70;;
15102;SDS011;7652;53.584;9.998;2022-10-24T06:14:30;5.90;;;2.07;;
15102;SDS011;7652;53.584;9.998;2022-10-24T06:17:33;3.07;;;1.70;;
15102;SDS011;7652;53.584;9.998;2022-10-24T06:20:38;2.57;;;1.90;;
15102;SDS011;7652;53.584;9.998;2022-10-24T06:23:41;2.50;;;1.60;;
15102;SDS011;7652;53.584;9.998;2022-10-24T06:26:44;2.80;;;1.67;;
15102;SDS011;7652;53.584;9.998;2022-10-24T06:29:47;3.87;;;2.20;;
15102;SDS011;7652;53.584;9.998;2022-10-24T06:32:50;2.27;;;2.00;;
15102;SDS011;7652;53.584;9.998;2022-10-24T06:35:54;6.60;;;1.90;;
15102;SDS011;7652;53.584;9.998;2022-10-24T06:39:00;5.07;;;2.03;;
15102;SDS011;7652;53.584;9.998;2022-10-24T06:42:03;5.77;;;1.83;;
15102;SDS011;7652;53.584;9.998;2022-10-24T06:45:06;2.50;;;1.90;;
15102;SDS011;7652;53.584;9.998;2022-10-24T06:48:10;3.47;;;2.27;;
15102;SDS011;7652;53.584;9.998;2022-10-24T06:51:15;3.70;;;1.80;;
15102;SDS011;7652;53.584;9.998;2022-10-24T06:54:18;3.37;;;2.00;;
15102;SDS011;7652;53.584;9.998;2022-10-24T06:57:23;2.27;;;1.70;;
15102;SDS011;7652;53.584;9.998;2022-10-24T07:00:26;4.97;;;1.70;;
15102;SDS011;7652;53.584;9.998;2022-10-24T07:03:34;7.10;;;2.27;;
15102;SDS011;7652;53.584;9.998;2022-10-24T07:06:38;2.27;;;1.83;;
15102;SDS011;7652;53.584;9.998;2022-10-24T07:09:42;2.53;;;1.70;;
15102;SDS011;7652;53.584;9.998;2022-10-24T07:12:45;4.60;;;2.20;;
15102;SDS011;7652;53.584;9.998;2022-10-24T07:15:48;3.80;;;2.13;;
15102;SDS011;7652;53.584;9.998;2022-10-24T07:18:54;5.97;;;2.43;;
15102;SDS011;7652;53.584;9.998;2022-10-24T07:21:58;5.23;;;1.73;;
15102;SDS011;7652;53.584;9.998;2022-10-24T07:25:02;5.03;;;2.00;;
15102;SDS011;7652;53.584;9.998;2022-10-24T07:28:06;2.17;;;1.73;;
15102;SDS011;7652;53.584;9.998;2022-10-24T07:31:09;2.67;;;1.77;;
15102;SDS011;7652;53.584;9.998;2022-10-24T07:34:15;5.23;;;2.40;;
15102;SDS011;7652;53.584;9.998;2022-10-24T07:37:20;2.20;;;2.00;;
15102;SDS011;7652;53.584;9.998;2022-10-24T07:40:23;4.20;;;2.00;;
15102;SDS011;7652;53.584;9.998;2022-10-24T07:43:26;6.03;;;1.80;;
15102;SDS011;7652;53.584;9.998;2022-10-24T07:46:29;4.10;;;1.87;;
15102;SDS011;7652;53.584;9.998;2022-10-24T07:49:32;4.70;;;2.10;;
15102;SDS011;7652;53.584;9.998;2022-10-24T07:52:36;5.10;;;2.07;;
15102;SDS011;7652;53.584;9.998;2022-10-24T07:55:40;3.60;;;1.90;;
15102;SDS011;7652;53.584;9.998;2022-10-24T07:58:44;4.63;;;1.97;;
15102;SDS011;7652;53.584;9.998;2022-10-24T08:01:48;3.67;;;1.70;;
15102;SDS011;7652;53.584;9.998;2022-10-24T08:04:51;5.00;;;2.07;;
15102;SDS011;7652;53.584;9.998;2022-10-24T08:07:56;3.33;;;1.90;;
15102;SDS011;7652;53.584;9.998;2022-10-24T08:11:19;4.70;;;1.87;;
15102;SDS011;7652;53.584;9.998;2022-10-24T08:14:23;5.17;;;1.70;;
15102;SDS011;7652;53.584;9.998;2022-10-24T08:17:26;4.27;;;2.20;;
15102;SDS011;7652;53.584;9.998;2022-10-24T08:20:29;8.60;;;2.60;;
15102;SDS011;7652;53.584;9.998;2022-10-24T08:23:34;5.27;;;2.20;;
15102;SDS011;7652;53.584;9.998;2022-10-24T08:26:39;3.43;;;1.73;;
15102;SDS011;7652;53.584;9.998;2022-10-24T08:29:42;5.00;;;2.63;;
15102;SDS011;7652;53.584;9.998;2022-10-24T08:32:45;3.20;;;1.90;;
15102;SDS011;7652;53.584;9.998;2022-10-24T08:35:48;4.20;;;2.03;;
15102;SDS011;7652;53.584;9.998;2022-10-24T08:38:53;5.10;;;1.77;;
15102;SDS011;7652;53.584;9.998;2022-10-24T08:41:57;4.37;;;2.00;;
15102;SDS011;7652;53.584;9.998;2022-10-24T08:45:07;5.73;;;2.13;;
15102;SDS011;7652;53.584;9.998;2022-10-24T08:48:14;3.47;;;1.70;;
15102;SDS011;7652;53.584;9.998;2022-10-24T08:51:24;3.97;;;1.70;;
15102;SDS011;7652;53.584;9.998;2022-10-24T08:54:37;8.23;;;2.00;;
15102;SDS011;7652;53.584;9.998;2022-10-24T08:57:43;5.17;;;1.90;;
15102;SDS011;7652;53.584;9.998;2022-10-24T09:00:50;3.43;;;1.77;;
15102;SDS011;7652;53.584;9.998;2022-10-24T09:03:55;6.17;;;1.90;;
15102;SDS011;7652;53.584;9.998;2022-10-24T09:07:01;4.07;;;1.70;;
15102;SDS011;7652;53.584;9.998;2022-10-24T09:10:10;7.03;;;1.73;;
15102;SDS011;7652;53.584;9.998;2022-10-24T09:13:18;7.83;;;1.80;;
15102;SDS011;7652;53.584;9.998;2022-10-24T09:16:24;4.73;;;2.20;;
15102;SDS011;7652;53.584;9.998;2022-10-24T09:19:29;4.43;;;1.70;;
15102;SDS011;7652;53.584;9.998;2022-10-24T09:22:33;5.10;;;1.80;;
15102;SDS011;7652;53.584;9.998;2022-10-24T09:25:43;9.40;;;2.53;;
15102;SDS011;7652;53.584;9.998;2022-10-24T09:28:48;2.03;;;1.13;;
15102;SDS011;7652;53.584;9.998;2022-10-24T09:31:51;1.67;;;1.30;;
15102;SDS011;7652;53.584;9.998;2022-10-24T09:34:54;3.50;;;1.30;;
15102;SDS011;7652;53.584;9.998;2022-10-24T09:38:24;4.13;;;1.63;;
15102;SDS011;7652;53.584;9.998;2022-10-24T09:41:35;5.17;;;1.50;;
15102;SDS011;7652;53.584;9.998;2022-10-24T09:44:38;2.43;;;1.73;;
15102;SDS011;7652;53.584;9.998;2022-10-24T09:47:44;4.70;;;1.30;;
15102;SDS011;7652;53.584;9.998;2022-10-24T09:50:48;3.17;;;1.23;;
15102;SDS011;7652;53.584;9.998;2022-10-24T09:54:00;4.07;;;1.67;;
15102;SDS011;7652;53.584;9.998;2022-10-24T09:57:27;4.10;;;1.40;;
15102;SDS011;7652;53.584;9.998;2022-10-24T10:00:39;3.10;;;1.37;;
15102;SDS011;7652;53.584;9.998;2022-10-24T10:03:43;3.57;;;1.60;;
15102;SDS011;7652;53.584;9.998;2022-10-24T10:07:10;3.03;;;1.50;;
15102;SDS011;7652;53.584;9.998;2022-10-24T10:13:44;5.33;;;1.23;;
15102;SDS011;7652;53.584;9.998;2022-10-24T10:16:56;1.67;;;1.17;;
15102;SDS011;7652;53.584;9.998;2022-10-24T10:20:01;2.87;;;1.40;;
15102;SDS011;7652;53.584;9.998;2022-10-24T10:23:15;3.90;;;1.30;;
15102;SDS011;7652;53.584;9.998;2022-10-24T10:26:24;4.87;;;1.57;;
15102;SDS011;7652;53.584;9.998;2022-10-24T10:29:31;4.20;;;1.73;;
15102;SDS011;7652;53.584;9.998;2022-10-24T10:32:35;3.03;;;1.13;;
15102;SDS011;7652;53.584;9.998;2022-10-24T10:35:46;1.40;;;0.87;;
15102;SDS011;7652;53.584;9.998;2022-10-24T10:39:08;2.93;;;1.50;;
15102;SDS011;7652;53.584;9.998;2022-10-24T10:42:23;3.67;;;1.23;;
15102;SDS011;7652;53.584;9.998;2022-10-24T10:45:38;1.90;;;1.20;;
15102;SDS011;7652;53.584;9.998;2022-10-24T10:48:48;2.10;;;1.53;;
15102;SDS011;7652;53.584;9.998;2022-10-24T10:52:01;3.67;;;1.57;;
15102;SDS011;7652;53.584;9.998;2022-10-24T10:55:11;3.93;;;1.63;;
15102;SDS011;7652;53.584;9.998;2022-10-24T10:58:24;3.50;;;1.30;;
15102;SDS011;7652;53.584;9.998;2022-10-24T11:01:41;1.23;;;0.97;;
15102;SDS011;7652;53.584;9.998;2022-10-24T11:04:53;6.17;;;1.67;;
15102;SDS011;7652;53.584;9.998;2022-10-24T11:08:09;4.63;;;1.27;;
15102;SDS011;7652;53.584;9.998;2022-10-24T11:11:21;3.63;;;1.30;;
15102;SDS011;7652;53.584;9.998;2022-10-24T11:14:30;1.97;;;1.03;;
15102;SDS011;7652;53.584;9.998;2022-10-24T11:17:38;2.57;;;1.03;;
15102;SDS011;7652;53.584;9.998;2022-10-24T11:20:47;4.53;;;1.50;;
15102;SDS011;7652;53.584;9.998;2022-10-24T11:23:54;3.37;;;1.40;;
15102;SDS011;7652;53.584;9.998;2022-10-24T11:27:02;2.93;;;1.40;;
15102;SDS011;7652;53.584;9.998;2022-10-24T11:30:12;2.93;;;0.93;;
15102;SDS011;7652;53.584;9.998;2022-10-24T11:33:19;4.83;;;1.47;;
15102;SDS011;7652;53.584;9.998;2022-10-24T11:36:26;3.23;;;1.07;;
15102;SDS011;7652;53.584;9.998;2022-10-24T11:39:35;3.77;;;1.00;;
15102;SDS011;7652;53.584;9.998;2022-10-24T11:42:45;2.90;;;1.27;;
15102;SDS011;7652;53.584;9.998;2022-10-24T11:45:54;1.20;;;1.10;;
15102;SDS011;7652;53.584;9.998;2022-10-24T11:49:04;3.00;;;1.17;;
15102;SDS011;7652;53.584;9.998;2022-10-24T11:52:15;1.83;;;1.10;;
15102;SDS011;7652;53.584;9.998;2022-10-24T11:55:23;3.77;;;1.00;;
15102;SDS011;7652;53.584;9.998;2022-10-24T11:58:31;1.57;;;1.10;;
15102;SDS011;7652;53.584;9.998;2022-10-24T12:05:10;1.43;;;0.97;;
15102;SDS011;7652;53.584;9.998;2022-10-24T12:08:29;2.87;;;1.10;;
15102;SDS011;7652;53.584;9.998;2022-10-24T12:11:51;3.97;;;1.10;;
15102;SDS011;7652;53.584;9.998;2022-10-24T12:15:16;3.13;;;1.00;;
15102;SDS011;7652;53.584;9.998;2022-10-24T12:18:30;3.97;;;0.70;;
15102;SDS011;7652;53.584;9.998;2022-10-24T12:21:38;2.33;;;0.97;;
15102;SDS011;7652;53.584;9.998;2022-10-24T12:24:45;1.77;;;0.87;;
15102;SDS011;7652;53.584;9.998;2022-10-24T12:27:52;2.10;;;1.00;;
15102;SDS011;7652;53.584;9.998;2022-10-24T12:31:06;2.23;;;0.77;;
15102;SDS011;7652;53.584;9.998;2022-10-24T12:34:38;2.13;;;1.00;;
15102;SDS011;7652;53.584;9.998;2022-10-24T12:37:51;3.90;;;0.93;;
15102;SDS011;7652;53.584;9.998;2022-10-24T12:40:55;3.57;;;0.80;;
15102;SDS011;7652;53.584;9.998;2022-10-24T12:47:41;2.90;;;1.33;;
15102;SDS011;7652;53.584;9.998;2022-10-24T12:54:17;1.80;;;0.70;;
15102;SDS011;7652;53.584;9.998;2022-10-24T12:57:41;1.13;;;0.93;;
15102;SDS011;7652;53.584;9.998;2022-10-24T13:00:52;2.27;;;1.10;;
15102;SDS011;7652;53.584;9.998;2022-10-24T13:07:34;2.33;;;1.03;;
15102;SDS011;7652;53.584;9.998;2022-10-24T13:10:56;1.80;;;0.80;;
15102;SDS011;7652;53.584;9.998;2022-10-24T13:17:52;3.67;;;1.10;;
15102;SDS011;7652;53.584;9.998;2022-10-24T13:21:12;2.90;;;1.00;;
15102;SDS011;7652;53.584;9.998;2022-10-24T13:24:28;2.80;;;0.87;;
15102;SDS011;7652;53.584;9.998;2022-10-24T13:27:36;4.07;;;1.20;;
15102;SDS011;7652;53.584;9.998;2022-10-24T13:30:39;4.73;;;1.00;;
15102;SDS011;7652;53.584;9.998;2022-10-24T13:33:47;1.10;;;0.77;;
15102;SDS011;7652;53.584;9.998;2022-10-24T13:36:56;2.30;;;1.00;;
15102;SDS011;7652;53.584;9.998;2022-10-24T13:40:09;1.43;;;0.90;;
15102;SDS011;7652;53.584;9.998;2022-10-24T13:43:19;3.50;;;1.10;;
15102;SDS011;7652;53.584;9.998;2022-10-24T13:46:24;4.63;;;1.13;;
15102;SDS011;7652;53.584;9.998;2022-10-24T13:49:33;2.07;;;1.00;;
15102;SDS011;7652;53.584;9.998;2022-10-24T13:52:41;3.27;;;1.00;;
15102;SDS011;7652;53.584;9.998;2022-10-24T13:55:49;3.40;;;1.00;;
15102;SDS011;7652;53.584;9.998;2022-10-24T13:58:54;2.67;;;0.93;;
15102;SDS011;7652;53.584;9.998;2022-10-24T14:01:57;4.43;;;0.77;;
15102;SDS011;7652;53.584;9.998;2022-10-24T14:05:03;2.83;;;0.83;;
15102;SDS011;7652;53.584;9.998;2022-10-24T14:08:06;0.90;;;0.63;;
15102;SDS011;7652;53.584;9.998;2022-10-24T14:11:11;4.13;;;1.13;;
15102;SDS011;7652;53.584;9.998;2022-10-24T14:14:26;2.40;;;0.93;;
15102;SDS011;7652;53.584;9.998;2022-10-24T14:17:32;3.70;;;1.00;;
15102;SDS011;7652;53.584;9.998;2022-10-24T14:20:36;3.43;;;0.90;;
15102;SDS011;7652;53.584;9.998;2022-10-24T14:23:39;3.03;;;0.90;;
15102;SDS011;7652;53.584;9.998;2022-10-24T14:26:43;3.37;;;1.03;;
15102;SDS011;7652;53.584;9.998;2022-10-24T14:29:58;1.93;;;0.90;;
15102;SDS011;7652;53.584;9.998;2022-10-24T14:33:17;3.07;;;0.93;;
15102;SDS011;7652;53.584;9.998;2022-10-24T14:36:22;4.17;;;1.30;;
15102;SDS011;7652;53.584;9.998;2022-10-24T14:39:28;3.13;;;0.97;;
15102;SDS011;7652;53.584;9.998;2022-10-24T14:42:31;2.80;;;1.20;;
15102;SDS011;7652;53.584;9.998;2022-10-24T14:45:36;3.30;;;0.93;;
15102;SDS011;7652;53.584;9.998;2022-10-24T14:48:40;2.53;;;0.97;;
15102;SDS011;7652;53.584;9.998;2022-10-24T14:51:45;3.27;;;0.97;;
15102;SDS011;7652;53.584;9.998;2022-10-24T14:54:56;2.47;;;1.03;;
15102;SDS011;7652;53.584;9.998;2022-10-24T14:58:03;4.13;;;1.00;;
15102;SDS011;7652;53.584;9.998;2022-10-24T15:01:14;2.97;;;1.20;;
15102;SDS011;7652;53.584;9.998;2022-10-24T15:04:26;2.67;;;1.10;;
15102;SDS011;7652;53.584;9.998;2022-10-24T15:07:35;3.47;;;1.10;;
15102;SDS011;7652;53.584;9.998;2022-10-24T15:10:39;2.37;;;0.73;;
15102;SDS011;7652;53.584;9.998;2022-10-24T15:13:45;3.13;;;1.33;;
15102;SDS011;7652;53.584;9.998;2022-10-24T15:17:17;2.70;;;0.77;;
15102;SDS011;7652;53.584;9.998;2022-10-24T15:20:32;3.03;;;0.93;;
15102;SDS011;7652;53.584;9.998;2022-10-24T15:23:43;2.77;;;0.90;;
15102;SDS011;7652;53.584;9.998;2022-10-24T15:26:48;3.97;;;0.90;;
15102;SDS011;7652;53.584;9.998;2022-10-24T15:29:51;3.63;;;0.80;;
15102;SDS011;7652;53.584;9.998;2022-10-24T15:32:56;2.93;;;1.00;;
15102;SDS011;7652;53.584;9.998;2022-10-24T15:36:00;3.93;;;1.13;;
15102;SDS011;7652;53.584;9.998;2022-10-24T15:39:10;2.50;;;1.20;;
15102;SDS011;7652;53.584;9.998;2022-10-24T15:42:15;3.13;;;1.30;;
15102;SDS011;7652;53.584;9.998;2022-10-24T15:45:23;3.27;;;1.10;;
15102;SDS011;7652;53.584;9.998;2022-10-24T15:48:27;1.90;;;1.07;;
15102;SDS011;7652;53.584;9.998;2022-10-24T15:51:30;1.73;;;1.13;;
15102;SDS011;7652;53.584;9.998;2022-10-24T15:54:33;6.43;;;1.13;;
15102;SDS011;7652;53.584;9.998;2022-10-24T15:57:36;4.67;;;1.37;;
15102;SDS011;7652;53.584;9.998;2022-10-24T16:00:39;1.83;;;0.70;;
15102;SDS011;7652;53.584;9.998;2022-10-24T16:03:44;4.10;;;1.03;;
15102;SDS011;7652;53.584;9.998;2022-10-24T16:06:47;2.87;;;0.80;;
15102;SDS011;7652;53.584;9.998;2022-10-24T16:09:51;3.33;;;0.80;;
15102;SDS011;7652;53.584;9.998;2022-10-24T16:12:54;3.33;;;1.00;;
15102;SDS011;7652;53.584;9.998;2022-10-24T16:15:57;2.17;;;0.80;;
15102;SDS011;7652;53.584;9.998;2022-10-24T16:19:01;2.47;;;0.90;;
15102;SDS011;7652;53.584;9.998;2022-10-24T16:22:04;6.40;;;1.30;;
15102;SDS011;7652;53.584;9.998;2022-10-24T16:25:11;4.50;;;1.30;;
15102;SDS011;7652;53.584;9.998;2022-10-24T16:28:16;3.77;;;1.33;;
15102;SDS011;7652;53.584;9.998;2022-10-24T16:31:24;7.47;;;1.27;;
15102;SDS011;7652;53.584;9.998;2022-10-24T16:34:28;6.53;;;1.23;;
15102;SDS011;7652;53.584;9.998;2022-10-24T16:37:31;3.03;;;0.97;;
15102;SDS011;7652;53.584;9.998;2022-10-24T16:40:36;4.70;;;1.00;;
15102;SDS011;7652;53.584;9.998;2022-10-24T16:43:41;4.00;;;1.00;;
15102;SDS011;7652;53.584;9.998;2022-10-24T16:46:48;1.70;;;1.23;;
15102;SDS011;7652;53.584;9.998;2022-10-24T16:49:55;3.17;;;1.23;;
15102;SDS011;7652;53.584;9.998;2022-10-24T16:52:59;2.63;;;1.10;;
15102;SDS011;7652;53.584;9.998;2022-10-24T16:56:04;2.33;;;0.97;;
15102;SDS011;7652;53.584;9.998;2022-10-24T16:59:09;2.07;;;0.90;;
15102;SDS011;7652;53.584;9.998;2022-10-24T17:02:16;3.77;;;1.00;;
15102;SDS011;7652;53.584;9.998;2022-10-24T17:05:22;3.83;;;1.47;;
15102;SDS011;7652;53.584;9.998;2022-10-24T17:08:27;2.80;;;1.40;;
15102;SDS011;7652;53.584;9.998;2022-10-24T17:11:30;5.53;;;1.40;;
15102;SDS011;7652;53.584;9.998;2022-10-24T17:14:46;6.53;;;1.40;;
15102;SDS011;7652;53.584;9.998;2022-10-24T17:17:49;4.80;;;1.43;;
15102;SDS011;7652;53.584;9.998;2022-10-24T17:20:53;2.77;;;1.23;;
15102;SDS011;7652;53.584;9.998;2022-10-24T17:24:00;2.73;;;1.20;;
15102;SDS011;7652;53.584;9.998;2022-10-24T17:27:03;1.97;;;1.00;;
15102;SDS011;7652;53.584;9.998;2022-10-24T17:30:13;4.87;;;1.13;;
15102;SDS011;7652;53.584;9.998;2022-10-24T17:33:17;6.43;;;1.50;;
15102;SDS011;7652;53.584;9.998;2022-10-24T17:36:24;2.50;;;1.10;;
15102;SDS011;7652;53.584;9.998;2022-10-24T17:39:30;5.43;;;1.70;;
15102;SDS011;7652;53.584;9.998;2022-10-24T17:42:35;2.17;;;1.10;;
15102;SDS011;7652;53.584;9.998;2022-10-24T17:45:39;1.80;;;1.00;;
15102;SDS011;7652;53.584;9.998;2022-10-24T17:48:43;2.47;;;1.10;;
15102;SDS011;7652;53.584;9.998;2022-10-24T17:51:47;4.13;;;1.23;;
15102;SDS011;7652;53.584;9.998;2022-10-24T17:54:50;2.70;;;1.17;;
15102;SDS011;7652;53.584;9.998;2022-10-24T17:57:53;2.97;;;1.40;;
15102;SDS011;7652;53.584;9.998;2022-10-24T18:00:56;2.13;;;1.20;;
15102;SDS011;7652;53.584;9.998;2022-10-24T18:03:59;2.43;;;1.20;;
15102;SDS011;7652;53.584;9.998;2022-10-24T18:07:03;3.20;;;1.10;;
15102;SDS011;7652;53.584;9.998;2022-10-24T18:10:07;3.10;;;1.30;;
15102;SDS011;7652;53.584;9.998;2022-10-24T18:13:10;3.40;;;1.30;;
15102;SDS011;7652;53.584;9.998;2022-10-24T18:16:14;1.90;;;1.20;;
15102;SDS011;7652;53.584;9.998;2022-10-24T18:19:19;2.50;;;1.30;;
15102;SDS011;7652;53.584;9.998;2022-10-24T18:22:23;2.87;;;1.03;;
15102;SDS011;7652;53.584;9.998;2022-10-24T18:25:26;1.17;;;0.80;;
15102;SDS011;7652;53.584;9.998;2022-10-24T18:28:30;2.50;;;1.40;;
15102;SDS011;7652;53.584;9.998;2022-10-24T18:31:33;4.87;;;1.13;;
15102;SDS011;7652;53.584;9.998;2022-10-24T18:34:36;3.53;;;0.90;;
15102;SDS011;7652;53.584;9.998;2022-10-24T18:37:40;2.43;;;1.40;;
15102;SDS011;7652;53.584;9.998;2022-10-24T18:40:44;3.37;;;1.20;;
15102;SDS011;7652;53.584;9.998;2022-10-24T18:43:47;2.90;;;1.00;;
15102;SDS011;7652;53.584;9.998;2022-10-24T18:46:51;2.33;;;1.10;;
15102;SDS011;7652;53.584;9.998;2022-10-24T18:49:55;3.13;;;1.07;;
15102;SDS011;7652;53.584;9.998;2022-10-24T18:53:02;1.10;;;0.83;;
15102;SDS011;7652;53.584;9.998;2022-10-24T18:56:07;2.30;;;1.07;;
15102;SDS011;7652;53.584;9.998;2022-10-24T18:59:11;2.43;;;1.20;;
15102;SDS011;7652;53.584;9.998;2022-10-24T19:02:19;3.33;;;1.30;;
15102;SDS011;7652;53.584;9.998;2022-10-24T19:05:32;3.40;;;1.13;;
15102;SDS011;7652;53.584;9.998;2022-10-24T19:08:44;1.63;;;0.90;;
15102;SDS011;7652;53.584;9.998;2022-10-24T19:11:47;2.27;;;1.00;;
15102;SDS011;7652;53.584;9.998;2022-10-24T19:14:51;3.67;;;1.40;;
15102;SDS011;7652;53.584;9.998;2022-10-24T19:17:55;1.17;;;0.83;;
15102;SDS011;7652;53.584;9.998;2022-10-24T19:20:58;2.60;;;0.80;;